Time;durP1;ratioP1;P1;durP2;ratioP2;P2;SDS_P1;SDS_P2;PMS_P1;PMS_P2;Temp;Humidity;BMP_temperature;BMP_pressure;BME280_temperature;BME280_humidity;BME280_pressure;Samples;Min_cycle;Max_cycle;Signal;HPM_P1;HPM_P2
2023/04/27 00:02:15;;;;;;;3.60;3.30;;;5.00;99.90;;;;;;5004216;28;20491;-66
2023/04/27 00:04:43;;;;;;;4.80;3.30;;;5.10;99.90;;;;;;5015026;28;20595;-67
2023/04/27 00:07:11;;;;;;;7.70;3.50;;;5.10;99.90;;;;;;5013595;28;20476;-65
2023/04/27 00:09:39;;;;;;;4.80;3.23;;;5.10;99.90;;;;;;5015272;28;20495;-66
2023/04/27 00:12:07;;;;;;;7.20;3.80;;;5.00;99.90;;;;;;5016004;28;20487;-66
2023/04/27 00:14:35;;;;;;;3.73;2.80;;;5.00;99.90;;;;;;5012738;28;20468;-66
2023/04/27 00:17:03;;;;;;;4.43;4.03;;;5.00;99.90;;;;;;5016097;28;20486;-66
2023/04/27 00:19:33;;;;;;;6.27;4.00;;;5.00;99.90;;;;;;5018364;28;20488;-66
2023/04/27 00:22:01;;;;;;;3.63;3.10;;;5.00;99.90;;;;;;5011693;28;20491;-66
2023/04/27 00:24:29;;;;;;;7.40;3.50;;;5.00;99.90;;;;;;5019039;28;20470;-66
2023/04/27 00:26:57;;;;;;;4.40;3.20;;;4.90;99.90;;;;;;5018192;28;20871;-66
2023/04/27 00:29:25;;;;;;;4.73;3.37;;;4.90;99.90;;;;;;5016124;28;20507;-66
2023/04/27 00:31:53;;;;;;;5.40;3.07;;;4.90;99.90;;;;;;5014180;28;20487;-66
2023/04/27 00:34:21;;;;;;;4.30;3.53;;;4.90;99.90;;;;;;5019731;28;20480;-66
2023/04/27 00:36:50;;;;;;;4.40;3.20;;;4.90;99.90;;;;;;5021357;28;20466;-66
2023/04/27 00:39:18;;;;;;;5.93;3.40;;;4.90;99.90;;;;;;5005462;28;21318;-66
2023/04/27 00:41:46;;;;;;;3.63;2.60;;;4.90;99.90;;;;;;5003782;28;20490;-65
2023/04/27 00:44:21;;;;;;;6.00;2.90;;;4.80;99.90;;;;;;4999269;28;20475;-66
2023/04/27 00:46:50;;;;;;;5.50;3.80;;;4.80;99.90;;;;;;5004906;28;20857;-66
2023/04/27 00:49:18;;;;;;;4.70;3.43;;;4.80;99.90;;;;;;5005532;28;22742;-66
2023/04/27 00:51:46;;;;;;;3.43;3.07;;;4.80;99.90;;;;;;5005883;28;20510;-66
2023/04/27 00:54:18;;;;;;;4.97;3.27;;;4.80;99.90;;;;;;5004686;28;20473;-66
2023/04/27 00:56:48;;;;;;;4.20;2.90;;;4.70;99.90;;;;;;5017734;28;20467;-66
2023/04/27 00:59:16;;;;;;;4.83;3.00;;;4.70;99.90;;;;;;5017253;28;20487;-66
2023/04/27 01:01:44;;;;;;;4.93;4.00;;;4.70;99.90;;;;;;5004618;28;20492;-66
2023/04/27 01:04:16;;;;;;;4.20;3.63;;;4.70;99.90;;;;;;5016501;28;20475;-66
2023/04/27 01:06:44;;;;;;;4.80;3.10;;;4.70;99.90;;;;;;5004594;28;20476;-66
2023/04/27 01:09:12;;;;;;;3.20;2.90;;;4.60;99.90;;;;;;5004906;28;20490;-66
2023/04/27 01:11:42;;;;;;;4.23;3.20;;;4.60;99.90;;;;;;5005926;28;20553;-66
2023/04/27 01:14:10;;;;;;;4.57;3.43;;;4.60;99.90;;;;;;4996407;28;20479;-66
2023/04/27 01:16:39;;;;;;;3.60;3.07;;;4.60;99.90;;;;;;4999807;28;21128;-66
2023/04/27 01:19:08;;;;;;;5.33;3.60;;;4.50;99.90;;;;;;4997155;28;20502;-65
2023/04/27 01:21:36;;;;;;;5.20;3.60;;;4.50;99.90;;;;;;5000333;28;20512;-67
2023/04/27 01:24:06;;;;;;;4.87;3.37;;;4.50;99.90;;;;;;5002911;28;20553;-64
2023/04/27 01:26:34;;;;;;;3.43;3.00;;;4.40;99.90;;;;;;5009440;28;20471;-64
2023/04/27 01:29:02;;;;;;;4.13;3.73;;;4.40;99.90;;;;;;5000475;28;20502;-64
2023/04/27 01:31:30;;;;;;;3.73;3.33;;;4.40;99.90;;;;;;5009699;28;20494;-65
2023/04/27 01:33:59;;;;;;;5.33;4.03;;;4.40;99.90;;;;;;5008481;28;20517;-66
2023/04/27 01:36:27;;;;;;;4.57;3.60;;;4.30;99.90;;;;;;4996780;28;20476;-65
2023/04/27 01:38:55;;;;;;;5.57;3.33;;;4.30;99.90;;;;;;5004472;28;21272;-66
2023/04/27 01:41:24;;;;;;;3.70;3.30;;;4.30;99.90;;;;;;5006764;28;20479;-65
2023/04/27 01:43:52;;;;;;;5.10;3.53;;;4.30;99.90;;;;;;5012900;28;20468;-66
2023/04/27 01:46:20;;;;;;;6.97;3.67;;;4.30;99.90;;;;;;5011270;28;20482;-64
2023/04/27 01:48:48;;;;;;;6.20;3.73;;;4.30;99.90;;;;;;5016031;28;20475;-67
2023/04/27 01:51:16;;;;;;;5.00;3.70;;;4.30;99.90;;;;;;5022903;28;20590;-65
2023/04/27 01:53:44;;;;;;;9.43;3.03;;;4.30;99.90;;;;;;5020545;28;20467;-65
2023/04/27 01:56:12;;;;;;;5.57;3.83;;;4.30;99.90;;;;;;5025308;28;20470;-66
2023/04/27 01:58:41;;;;;;;3.63;3.33;;;4.40;99.90;;;;;;5027573;28;20459;-64
2023/04/27 02:01:10;;;;;;;5.33;3.97;;;4.40;99.90;;;;;;5030759;28;20491;-66
2023/04/27 02:03:38;;;;;;;6.47;3.70;;;4.40;99.90;;;;;;5021610;28;20874;-66
2023/04/27 02:06:06;;;;;;;4.47;3.70;;;4.40;99.90;;;;;;5023269;28;20988;-64
2023/04/27 02:08:34;;;;;;;6.23;3.73;;;4.40;99.90;;;;;;5022355;28;20479;-64
2023/04/27 02:11:02;;;;;;;5.13;4.10;;;4.40;99.90;;;;;;5017541;28;20900;-64
2023/04/27 02:13:34;;;;;;;5.57;3.57;;;4.50;99.90;;;;;;5016733;28;20741;-66
2023/04/27 02:16:03;;;;;;;4.17;3.50;;;4.50;99.90;;;;;;5011116;28;20471;-66
2023/04/27 02:18:35;;;;;;;4.00;3.60;;;4.60;99.90;;;;;;5012258;28;20508;-64
2023/04/27 02:21:08;;;;;;;4.73;3.63;;;4.50;99.90;;;;;;5018191;28;20719;-64
2023/04/27 02:23:36;;;;;;;5.17;3.50;;;4.50;99.90;;;;;;5017023;28;20486;-67
2023/04/27 02:26:04;;;;;;;4.27;3.60;;;4.50;99.90;;;;;;5014269;28;20463;-64
2023/04/27 02:28:32;;;;;;;5.80;3.23;;;4.50;99.90;;;;;;5012024;28;20475;-66
2023/04/27 02:31:01;;;;;;;5.50;3.90;;;4.50;99.90;;;;;;5002274;28;20491;-64
2023/04/27 02:33:30;;;;;;;5.00;3.27;;;4.50;99.90;;;;;;5009706;28;20471;-66
2023/04/27 02:35:58;;;;;;;4.17;3.37;;;4.50;99.90;;;;;;5010678;28;20464;-66
2023/04/27 02:38:26;;;;;;;5.80;3.73;;;4.60;99.90;;;;;;5016597;28;21613;-66
2023/04/27 02:40:54;;;;;;;4.60;4.10;;;4.60;99.90;;;;;;5000804;28;20487;-66
2023/04/27 02:43:22;;;;;;;4.33;3.60;;;4.60;99.90;;;;;;5003496;28;20468;-66
2023/04/27 02:45:50;;;;;;;5.13;3.27;;;4.60;99.90;;;;;;5005626;28;20488;-66
2023/04/27 02:48:18;;;;;;;3.40;3.10;;;4.60;99.90;;;;;;5012827;28;20470;-66
2023/04/27 02:50:47;;;;;;;4.57;3.20;;;4.60;99.90;;;;;;5006947;28;22466;-64
2023/04/27 02:53:15;;;;;;;4.97;3.57;;;4.70;99.90;;;;;;5001929;28;20502;-65
2023/04/27 02:55:47;;;;;;;4.03;3.50;;;4.60;99.90;;;;;;5003658;28;20467;-65
2023/04/27 02:58:15;;;;;;;6.97;3.57;;;4.60;99.90;;;;;;5001639;28;20992;-66
2023/04/27 03:00:44;;;;;;;5.67;3.50;;;4.60;99.90;;;;;;5008201;28;20529;-64
2023/04/27 03:03:12;;;;;;;4.40;3.30;;;4.60;99.90;;;;;;5010071;28;20504;-65
2023/04/27 03:05:40;;;;;;;4.03;3.20;;;4.60;99.90;;;;;;5019798;28;20535;-66
2023/04/27 03:08:09;;;;;;;4.20;3.20;;;4.60;99.90;;;;;;5025437;28;20471;-66
2023/04/27 03:10:37;;;;;;;3.90;3.50;;;4.60;99.90;;;;;;5017898;28;20495;-65
2023/04/27 03:13:05;;;;;;;5.37;3.00;;;4.50;99.90;;;;;;5027744;28;20499;-64
2023/04/27 03:15:33;;;;;;;6.33;3.57;;;4.50;99.90;;;;;;5033373;28;20463;-67
2023/04/27 03:18:01;;;;;;;4.77;3.70;;;4.50;99.90;;;;;;5035497;28;20487;-66
2023/04/27 03:20:31;;;;;;;3.43;3.13;;;4.50;99.90;;;;;;5020952;28;20865;-66
2023/04/27 03:23:00;;;;;;;2.97;2.70;;;4.40;99.90;;;;;;5020138;28;20503;-66
2023/04/27 03:25:29;;;;;;;4.97;3.53;;;4.40;99.90;;;;;;5015116;28;20512;-65
2023/04/27 03:27:57;;;;;;;3.50;3.10;;;4.40;99.90;;;;;;5016173;28;20545;-65
2023/04/27 03:30:25;;;;;;;3.17;2.87;;;4.30;99.90;;;;;;5021131;28;20491;-66
2023/04/27 03:32:53;;;;;;;4.57;3.20;;;4.30;99.90;;;;;;5015090;28;20475;-66
2023/04/27 03:35:21;;;;;;;6.17;3.23;;;4.20;99.90;;;;;;5007904;28;20474;-67
2023/04/27 03:37:49;;;;;;;3.73;3.13;;;4.20;99.90;;;;;;5018950;28;20478;-66
2023/04/27 03:40:17;;;;;;;5.33;3.27;;;4.10;99.90;;;;;;4999860;28;20503;-64
2023/04/27 03:42:46;;;;;;;3.83;3.30;;;4.10;99.90;;;;;;4995992;28;20700;-66
2023/04/27 03:45:15;;;;;;;4.60;3.07;;;4.10;99.90;;;;;;5002322;28;21896;-66
2023/04/27 03:47:43;;;;;;;4.60;2.97;;;4.10;99.90;;;;;;5005103;28;20562;-66
2023/04/27 03:50:11;;;;;;;4.93;2.70;;;4.00;99.90;;;;;;5006561;28;20491;-66
2023/04/27 03:52:39;;;;;;;2.97;2.67;;;4.00;99.90;;;;;;5016789;28;20484;-64
2023/04/27 03:55:08;;;;;;;5.37;3.10;;;4.00;99.90;;;;;;4994713;28;20902;-64
2023/04/27 03:57:35;;;;;;;4.20;3.30;;;3.90;99.90;;;;;;4999015;28;20471;-66
2023/04/27 04:00:10;;;;;;;6.53;3.53;;;3.90;99.90;;;;;;5002636;28;21848;-65
2023/04/27 04:02:38;;;;;;;3.30;3.00;;;3.90;99.90;;;;;;5008969;28;20507;-67
2023/04/27 04:05:07;;;;;;;6.50;3.70;;;3.90;99.90;;;;;;5011577;28;20475;-66
2023/04/27 04:07:35;;;;;;;7.03;4.57;;;4.00;99.90;;;;;;5020797;28;21000;-66
2023/04/27 04:10:04;;;;;;;4.50;3.73;;;4.00;99.90;;;;;;5016128;28;20488;-64
2023/04/27 04:12:33;;;;;;;5.20;4.20;;;4.00;99.90;;;;;;5014792;28;20570;-65
2023/04/27 04:15:01;;;;;;;5.10;4.10;;;4.00;99.90;;;;;;5020188;28;20832;-64
2023/04/27 04:17:32;;;;;;;4.43;3.30;;;4.00;99.90;;;;;;5014840;28;20872;-65
2023/04/27 04:20:01;;;;;;;3.80;3.40;;;4.00;99.90;;;;;;5019089;28;20496;-65
2023/04/27 04:22:29;;;;;;;4.57;3.40;;;4.00;99.90;;;;;;5016035;28;21092;-65
2023/04/27 04:24:57;;;;;;;4.73;3.57;;;4.00;99.90;;;;;;5016845;28;21087;-64
2023/04/27 04:27:25;;;;;;;5.50;3.70;;;4.00;99.90;;;;;;5016514;28;20475;-66
2023/04/27 04:29:54;;;;;;;5.10;4.27;;;4.10;99.90;;;;;;5018285;28;20506;-64
2023/04/27 04:32:23;;;;;;;5.53;4.33;;;4.10;99.90;;;;;;5015351;28;20514;-65
2023/04/27 04:34:53;;;;;;;4.80;3.80;;;4.10;99.90;;;;;;5016867;28;20476;-63
2023/04/27 04:37:21;;;;;;;4.80;3.63;;;4.10;99.90;;;;;;5015649;28;20817;-66
2023/04/27 04:39:49;;;;;;;4.40;3.80;;;4.20;99.90;;;;;;5015353;28;21047;-64
2023/04/27 04:42:16;;;;;;;7.13;4.67;;;4.20;99.90;;;;;;4999331;28;20487;-64
2023/04/27 04:44:44;;;;;;;5.17;4.20;;;4.20;99.90;;;;;;4997047;28;20471;-64
2023/04/27 04:47:12;;;;;;;5.33;3.60;;;4.30;99.90;;;;;;5000581;28;20502;-65
2023/04/27 04:49:40;;;;;;;7.27;3.80;;;4.30;99.90;;;;;;5007139;28;20905;-64
2023/04/27 04:52:09;;;;;;;5.03;3.93;;;4.40;99.90;;;;;;4991713;28;20480;-64
2023/04/27 04:54:37;;;;;;;6.07;4.10;;;4.40;99.90;;;;;;4992233;28;20476;-66
2023/04/27 04:57:06;;;;;;;7.80;4.50;;;4.50;99.90;;;;;;4992402;28;20501;-65
2023/04/27 04:59:34;;;;;;;4.77;4.17;;;4.50;99.90;;;;;;5000721;28;20494;-66
2023/04/27 05:02:02;;;;;;;5.90;4.40;;;4.60;99.90;;;;;;4999751;28;20517;-65
2023/04/27 05:04:30;;;;;;;5.97;3.70;;;4.60;99.90;;;;;;5002265;28;20475;-65
2023/04/27 05:07:00;;;;;;;7.70;4.10;;;4.60;99.90;;;;;;5007226;28;20463;-65
2023/04/27 05:09:29;;;;;;;7.07;4.40;;;4.70;99.90;;;;;;5013792;28;20538;-67
2023/04/27 05:12:01;;;;;;;6.23;4.50;;;4.60;99.90;;;;;;5010565;28;20632;-67
2023/04/27 05:14:29;;;;;;;6.00;4.90;;;4.60;99.90;;;;;;5004882;28;20895;-66
2023/04/27 05:16:57;;;;;;;5.40;4.43;;;4.70;99.90;;;;;;5011879;28;20476;-66
2023/04/27 05:19:25;;;;;;;5.80;4.30;;;4.70;99.90;;;;;;5010048;28;20496;-66
2023/04/27 05:21:52;;;;;;;5.70;4.50;;;4.70;99.90;;;;;;5006692;28;20487;-64
2023/04/27 05:24:20;;;;;;;6.57;4.40;;;4.80;99.90;;;;;;5004154;28;20930;-66
2023/04/27 05:26:50;;;;;;;5.73;4.53;;;4.80;99.90;;;;;;5005787;28;20482;-64
2023/04/27 05:29:18;;;;;;;6.30;4.37;;;4.80;99.90;;;;;;4994568;28;20510;-65
2023/04/27 05:31:46;;;;;;;6.60;4.60;;;4.90;99.90;;;;;;4997133;28;20874;-66
2023/04/27 05:34:14;;;;;;;6.43;4.80;;;4.90;99.90;;;;;;4994105;28;20586;-64
2023/04/27 05:36:41;;;;;;;4.40;3.70;;;5.00;99.90;;;;;;4995132;28;21002;-65
2023/04/27 05:39:11;;;;;;;6.53;4.50;;;5.00;99.90;;;;;;4993284;28;20495;-66
2023/04/27 05:41:39;;;;;;;6.73;4.47;;;5.10;99.90;;;;;;4991076;28;21170;-64
2023/04/27 05:44:08;;;;;;;6.30;4.27;;;5.10;99.90;;;;;;4999721;28;20467;-65
2023/04/27 05:46:36;;;;;;;6.33;4.37;;;5.20;99.90;;;;;;4990941;28;20468;-66
2023/04/27 05:49:05;;;;;;;8.03;5.00;;;5.20;99.90;;;;;;5008073;28;20490;-64
2023/04/27 05:51:34;;;;;;;7.53;4.97;;;5.20;99.90;;;;;;5003640;28;20499;-66
2023/04/27 05:54:01;;;;;;;6.20;4.10;;;5.30;99.90;;;;;;4999047;28;20503;-64
2023/04/27 05:56:29;;;;;;;5.67;4.73;;;5.30;99.90;;;;;;4999768;28;20471;-66
2023/04/27 05:58:57;;;;;;;6.63;4.47;;;5.40;99.90;;;;;;5001805;28;20499;-65
2023/04/27 06:01:30;;;;;;;8.03;5.10;;;5.40;99.90;;;;;;4996276;28;20628;-64
2023/04/27 06:04:00;;;;;;;7.77;4.60;;;5.40;99.90;;;;;;4987095;28;20478;-66
2023/04/27 06:06:32;;;;;;;6.13;5.00;;;5.50;99.90;;;;;;4983768;28;20556;-65
2023/04/27 06:09:00;;;;;;;7.70;4.70;;;5.50;99.90;;;;;;5002429;28;20861;-64
2023/04/27 06:11:28;;;;;;;8.80;6.10;;;5.60;99.90;;;;;;5002064;28;20514;-65
2023/04/27 06:13:56;;;;;;;5.93;4.80;;;5.60;99.90;;;;;;4999417;28;20491;-65
2023/04/27 06:16:24;;;;;;;7.83;4.53;;;5.70;99.90;;;;;;5009963;28;20478;-65
2023/04/27 06:18:53;;;;;;;5.07;4.57;;;5.70;99.90;;;;;;5005987;28;20605;-66
2023/04/27 06:21:21;;;;;;;7.33;4.40;;;5.80;99.90;;;;;;5014388;28;20488;-66
2023/04/27 06:23:49;;;;;;;5.70;3.50;;;5.80;99.90;;;;;;5008469;28;20475;-66
2023/04/27 06:26:17;;;;;;;6.07;3.63;;;5.80;99.90;;;;;;5010261;28;20498;-66
2023/04/27 06:28:45;;;;;;;5.73;3.33;;;5.90;99.90;;;;;;5010310;28;20898;-66
2023/04/27 06:31:14;;;;;;;4.50;3.67;;;5.90;99.90;;;;;;5009128;28;21050;-66
2023/04/27 06:33:41;;;;;;;4.00;3.40;;;6.00;99.90;;;;;;5010237;28;20619;-66
2023/04/27 06:36:11;;;;;;;6.50;3.43;;;6.10;99.90;;;;;;5011601;28;20503;-66
2023/04/27 06:38:39;;;;;;;4.83;3.20;;;6.10;99.90;;;;;;5010404;28;20992;-66
2023/04/27 06:41:07;;;;;;;5.20;3.83;;;6.20;99.90;;;;;;5010227;28;20522;-66
2023/04/27 06:43:35;;;;;;;4.50;3.70;;;6.30;99.90;;;;;;5019138;28;21145;-66
2023/04/27 06:46:03;;;;;;;5.00;3.63;;;6.30;99.90;;;;;;5017478;28;20824;-64
2023/04/27 06:48:31;;;;;;;3.50;3.20;;;6.40;99.90;;;;;;5012355;28;20695;-66
2023/04/27 06:50:59;;;;;;;5.80;3.87;;;6.40;99.90;;;;;;5018013;28;20480;-66
2023/04/27 06:53:30;;;;;;;4.40;3.00;;;6.50;99.90;;;;;;5018825;28;20491;-66
2023/04/27 06:55:58;;;;;;;5.93;3.40;;;6.50;99.90;;;;;;5014454;28;21323;-68
2023/04/27 06:58:26;;;;;;;4.77;3.07;;;6.50;99.90;;;;;;5015000;28;20482;-69
2023/04/27 07:00:55;;;;;;;11.20;3.43;;;6.60;99.90;;;;;;5014698;28;20578;-66
2023/04/27 07:03:27;;;;;;;7.30;3.13;;;6.60;99.90;;;;;;5018989;28;20473;-64
2023/04/27 07:05:56;;;;;;;6.00;3.63;;;6.70;99.90;;;;;;5025179;28;20480;-66
2023/04/27 07:08:24;;;;;;;4.73;2.87;;;6.80;99.90;;;;;;5018969;28;20478;-66
2023/04/27 07:10:54;;;;;;;3.90;2.70;;;6.80;99.90;;;;;;5007051;28;20491;-68
2023/04/27 07:13:22;;;;;;;3.53;3.17;;;6.90;99.90;;;;;;5016920;28;20471;-66
2023/04/27 07:15:56;;;;;;;4.30;2.90;;;6.90;99.90;;;;;;5012076;28;20483;-67
2023/04/27 07:18:26;;;;;;;3.97;3.00;;;7.00;99.90;;;;;;5017425;28;20530;-68
2023/04/27 07:20:56;;;;;;;3.50;2.87;;;7.10;99.90;;;;;;5020063;28;20493;-67
2023/04/27 07:23:25;;;;;;;5.37;3.17;;;7.10;99.90;;;;;;5019206;28;21037;-68
2023/04/27 07:25:54;;;;;;;3.83;2.90;;;7.20;99.90;;;;;;5013767;28;20479;-67
2023/04/27 07:28:22;;;;;;;2.93;2.53;;;7.30;99.90;;;;;;5020003;28;20483;-68
2023/04/27 07:30:50;;;;;;;3.07;2.77;;;7.30;99.90;;;;;;5019984;28;20484;-68
2023/04/27 07:33:18;;;;;;;5.87;2.80;;;7.40;99.90;;;;;;5019834;28;20471;-68
2023/04/27 07:35:49;;;;;;;4.40;2.93;;;7.50;99.90;;;;;;5019253;28;20586;-67
2023/04/27 07:38:17;;;;;;;2.50;2.30;;;7.60;99.90;;;;;;5020147;28;20475;-68
2023/04/27 07:40:45;;;;;;;4.17;2.90;;;7.60;99.90;;;;;;5020008;28;21043;-68
2023/04/27 07:43:15;;;;;;;3.60;2.67;;;7.60;99.90;;;;;;5020104;28;20479;-68
2023/04/27 07:45:43;;;;;;;5.13;3.00;;;7.70;99.90;;;;;;5020713;28;20472;-68
2023/04/27 07:48:11;;;;;;;3.10;2.80;;;7.70;99.90;;;;;;5020515;28;20482;-68
2023/04/27 07:50:39;;;;;;;5.17;2.97;;;7.80;99.90;;;;;;5018879;28;20545;-67
2023/04/27 07:53:07;;;;;;;3.17;2.93;;;7.90;99.90;;;;;;5016707;28;20980;-68
2023/04/27 07:55:35;;;;;;;4.53;2.80;;;7.90;99.90;;;;;;5019999;28;20850;-66
2023/04/27 07:58:04;;;;;;;5.17;2.90;;;7.90;99.90;;;;;;5021061;28;20476;-67
2023/04/27 08:00:33;;;;;;;4.83;2.73;;;7.70;99.90;;;;;;5015968;28;20492;-67
2023/04/27 08:03:01;;;;;;;6.00;3.40;;;7.60;99.90;;;;;;5019562;28;20916;-67
2023/04/27 08:05:30;;;;;;;3.30;3.00;;;7.60;99.90;;;;;;5015677;28;20546;-68
2023/04/27 08:07:58;;;;;;;3.60;3.07;;;7.70;99.90;;;;;;5018550;28;20511;-68
2023/04/27 08:10:27;;;;;;;3.70;2.80;;;7.80;99.90;;;;;;5019193;28;20491;-68
2023/04/27 08:12:55;;;;;;;3.07;2.77;;;7.90;99.90;;;;;;5019692;28;20601;-68
2023/04/27 08:15:25;;;;;;;4.17;2.90;;;8.00;99.90;;;;;;5021612;28;21229;-67
2023/04/27 08:17:55;;;;;;;3.73;2.77;;;8.20;99.90;;;;;;5015006;28;20480;-68
2023/04/27 08:20:23;;;;;;;4.27;2.63;;;8.30;99.90;;;;;;5018710;28;20865;-68
2023/04/27 08:22:51;;;;;;;3.93;3.07;;;8.30;99.90;;;;;;5019775;28;20484;-65
2023/04/27 08:25:19;;;;;;;3.50;2.70;;;8.30;99.90;;;;;;5020937;28;20489;-68
2023/04/27 08:27:47;;;;;;;4.20;2.63;;;8.40;99.90;;;;;;5019492;28;20478;-67
2023/04/27 08:30:16;;;;;;;3.20;2.43;;;8.40;99.90;;;;;;5019843;28;20522;-67
2023/04/27 08:32:47;;;;;;;2.90;2.47;;;8.50;99.90;;;;;;5018888;28;20495;-66
2023/04/27 08:35:17;;;;;;;6.03;3.23;;;8.50;99.90;;;;;;5025598;28;20491;-68
2023/04/27 08:37:46;;;;;;;3.00;2.63;;;8.50;99.90;;;;;;5024114;28;20499;-68
2023/04/27 08:40:14;;;;;;;3.10;2.53;;;8.60;99.90;;;;;;5023396;28;20492;-67
2023/04/27 08:42:54;;;;;;;4.07;2.60;;;8.60;99.90;;;;;;5022752;28;20494;-68
2023/04/27 08:45:23;;;;;;;3.00;2.50;;;8.70;99.90;;;;;;5021169;28;20473;-68
2023/04/27 08:47:51;;;;;;;3.27;2.53;;;8.70;99.90;;;;;;5020118;28;20467;-70
2023/04/27 08:50:22;;;;;;;2.90;2.70;;;8.70;99.90;;;;;;5020633;28;20487;-68
2023/04/27 08:52:51;;;;;;;2.70;2.50;;;8.80;99.90;;;;;;5019161;28;20574;-68
2023/04/27 08:55:20;;;;;;;3.80;2.83;;;8.80;99.90;;;;;;5021086;28;20510;-68
2023/04/27 08:57:55;;;;;;;2.83;2.50;;;8.90;99.90;;;;;;5017270;28;20472;-67
2023/04/27 09:00:25;;;;;;;3.30;2.63;;;8.90;99.90;;;;;;5020242;28;20574;-68
2023/04/27 09:02:53;;;;;;;4.60;2.77;;;9.00;99.90;;;;;;5019152;28;20492;-68
2023/04/27 09:05:23;;;;;;;4.10;2.80;;;9.00;99.90;;;;;;5021765;28;20463;-68
2023/04/27 09:07:59;;;;;;;4.07;2.80;;;9.00;99.90;;;;;;5018422;28;20480;-65
2023/04/27 09:10:28;;;;;;;2.87;2.67;;;9.00;99.90;;;;;;5019284;28;20573;-67
2023/04/27 09:12:57;;;;;;;2.60;2.40;;;9.00;99.90;;;;;;5017859;28;21005;-68
2023/04/27 09:15:25;;;;;;;2.53;2.33;;;9.00;99.90;;;;;;5019579;28;20588;-67
2023/04/27 09:17:55;;;;;;;6.00;3.57;;;9.00;99.90;;;;;;5018769;28;20472;-67
2023/04/27 09:20:25;;;;;;;5.43;2.93;;;9.10;99.90;;;;;;5018183;28;20491;-67
2023/04/27 09:22:56;;;;;;;10.17;3.40;;;9.20;99.90;;;;;;5019876;28;20933;-68
2023/04/27 09:25:26;;;;;;;4.33;3.00;;;9.40;99.90;;;;;;5018559;28;20490;-68
2023/04/27 09:27:54;;;;;;;3.07;2.77;;;9.50;99.90;;;;;;5018142;28;20478;-68
2023/04/27 09:30:22;;;;;;;4.20;2.83;;;9.60;99.90;;;;;;5018741;28;20520;-68
2023/04/27 09:32:53;;;;;;;5.17;2.87;;;9.60;99.90;;;;;;5016539;28;20488;-68
2023/04/27 09:35:24;;;;;;;3.20;2.90;;;9.60;99.90;;;;;;5017919;28;20499;-68
2023/04/27 09:37:53;;;;;;;3.93;3.00;;;9.60;99.90;;;;;;5024331;28;20841;-67
2023/04/27 09:40:25;;;;;;;3.90;3.20;;;9.60;99.90;;;;;;5019913;28;20495;-68
2023/04/27 09:42:54;;;;;;;3.90;3.00;;;9.60;99.90;;;;;;5019153;28;20482;-68
2023/04/27 09:45:23;;;;;;;3.20;2.90;;;9.70;99.90;;;;;;5023044;28;21019;-68
2023/04/27 09:47:51;;;;;;;3.37;3.07;;;9.80;99.90;;;;;;5020583;28;20476;-66
2023/04/27 09:50:21;;;;;;;2.97;2.70;;;9.90;99.90;;;;;;5016839;28;21035;-68
2023/04/27 09:52:51;;;;;;;2.60;2.40;;;10.00;99.90;;;;;;5020296;28;20944;-67
2023/04/27 09:55:22;;;;;;;3.20;2.77;;;10.00;99.90;;;;;;5024189;28;20498;-68
2023/04/27 09:57:58;;;;;;;2.90;2.63;;;10.00;99.90;;;;;;5020338;28;20491;-67
2023/04/27 10:00:42;;;;;;;3.17;2.87;;;10.10;99.90;;;;;;5019338;28;20483;-68
2023/04/27 10:03:21;;;;;;;2.50;2.30;;;10.10;99.90;;;;;;5016485;28;21044;-68
2023/04/27 10:06:44;;;;;;;3.57;2.77;;;10.10;99.90;;;;;;5018108;28;20495;-68
2023/04/27 10:09:16;;;;;;;3.27;2.90;;;10.20;99.90;;;;;;5006019;28;20487;-66
2023/04/27 10:11:46;;;;;;;4.30;3.17;;;10.20;99.90;;;;;;5021783;28;20594;-68
2023/04/27 10:14:18;;;;;;;3.53;2.70;;;10.30;99.90;;;;;;5026362;28;20471;-68
2023/04/27 10:16:47;;;;;;;3.87;2.60;;;10.30;99.90;;;;;;5021973;28;20856;-65
2023/04/27 10:19:15;;;;;;;3.93;2.63;;;10.40;99.90;;;;;;5023044;28;20590;-65
2023/04/27 10:21:55;;;;;;;3.27;2.60;;;10.50;99.90;;;;;;5025801;28;20480;-66
2023/04/27 10:24:36;;;;;;;2.83;2.63;;;10.60;99.90;;;;;;5026696;28;20602;-68
2023/04/27 10:27:06;;;;;;;5.40;3.30;;;10.80;99.90;;;;;;5024908;28;20467;-68
2023/04/27 10:29:39;;;;;;;4.73;2.83;;;10.90;99.90;;;;;;5025950;28;20506;-66
2023/04/27 10:32:08;;;;;;;6.90;3.53;;;10.90;99.90;;;;;;5019386;28;20552;-68
2023/04/27 10:34:37;;;;;;;4.13;3.30;;;10.90;99.90;;;;;;5017411;28;20532;-66
2023/04/27 10:37:06;;;;;;;6.40;3.60;;;10.90;99.90;;;;;;5018399;28;20494;-66
2023/04/27 10:39:37;;;;;;;3.13;2.93;;;10.90;99.90;;;;;;5018424;28;20608;-66
2023/04/27 10:42:25;;;;;;;3.60;3.30;;;10.80;99.90;;;;;;5016804;28;21174;-66
2023/04/27 10:44:57;;;;;;;3.70;3.30;;;10.70;99.90;;;;;;5018692;28;20470;-65
2023/04/27 10:47:35;;;;;;;3.27;2.80;;;10.70;99.90;;;;;;5018183;28;20490;-66
2023/04/27 10:50:05;;;;;;;5.40;3.40;;;10.70;99.90;;;;;;5020199;28;20612;-66
2023/04/27 10:52:33;;;;;;;4.00;3.60;;;10.80;99.90;;;;;;5022221;28;21020;-68
2023/04/27 10:55:13;;;;;;;4.80;3.13;;;10.80;99.90;;;;;;5023050;28;20996;-66
2023/04/27 10:57:49;;;;;;;4.80;3.80;;;10.80;99.90;;;;;;5018209;28;20463;-66
2023/04/27 11:00:24;;;;;;;5.50;3.53;;;10.90;99.90;;;;;;5018715;28;20638;-66
2023/04/27 11:02:53;;;;;;;4.27;3.10;;;11.00;99.90;;;;;;5014608;28;20979;-66
2023/04/27 11:05:24;;;;;;;5.20;3.40;;;11.10;99.90;;;;;;5018637;28;20503;-66
2023/04/27 11:07:52;;;;;;;3.80;3.33;;;11.10;99.90;;;;;;5019936;28;20479;-66
2023/04/27 11:10:21;;;;;;;4.43;3.57;;;11.10;99.90;;;;;;5018483;28;20510;-66
2023/04/27 11:12:49;;;;;;;3.30;3.10;;;11.00;99.90;;;;;;5011110;28;20495;-65
2023/04/27 11:15:17;;;;;;;3.57;3.27;;;10.90;99.90;;;;;;5012886;28;20795;-66
2023/04/27 11:17:45;;;;;;;5.57;4.77;;;11.00;99.90;;;;;;5014881;28;20502;-67
2023/04/27 11:20:15;;;;;;;5.30;4.80;;;11.10;99.90;;;;;;5016251;28;20491;-66
2023/04/27 11:22:47;;;;;;;4.07;3.77;;;11.10;99.90;;;;;;5017397;28;20484;-66
2023/04/27 11:25:15;;;;;;;6.43;3.90;;;11.10;99.90;;;;;;5017600;28;20471;-67
2023/04/27 11:27:44;;;;;;;4.30;3.90;;;11.10;99.90;;;;;;5012244;28;20712;-66
2023/04/27 11:30:20;;;;;;;4.50;3.50;;;11.10;99.90;;;;;;5013284;28;20487;-66
2023/04/27 11:32:49;;;;;;;3.90;3.60;;;11.20;99.90;;;;;;5015729;28;20591;-66
2023/04/27 11:35:18;;;;;;;5.33;3.80;;;11.20;99.90;;;;;;5015480;28;20468;-66
2023/04/27 11:37:57;;;;;;;3.90;3.60;;;11.40;99.90;;;;;;5020167;28;20492;-66
2023/04/27 11:40:26;;;;;;;3.70;3.40;;;11.60;99.90;;;;;;5016798;28;20490;-66
2023/04/27 11:42:58;;;;;;;3.70;3.40;;;11.70;99.90;;;;;;5016599;28;20494;-66
2023/04/27 11:45:27;;;;;;;4.50;3.30;;;11.80;99.90;;;;;;5018549;28;20486;-66
2023/04/27 11:47:57;;;;;;;3.40;3.10;;;11.90;99.90;;;;;;5021407;28;20965;-66
2023/04/27 11:50:25;;;;;;;3.77;3.37;;;11.90;99.90;;;;;;5019521;28;20498;-66
2023/04/27 11:52:54;;;;;;;3.57;3.10;;;12.00;99.90;;;;;;5020857;28;20478;-66
2023/04/27 11:55:23;;;;;;;3.10;2.80;;;12.10;99.90;;;;;;5018715;28;20632;-65
2023/04/27 11:57:58;;;;;;;5.20;3.60;;;12.10;99.90;;;;;;5015823;28;20914;-65
2023/04/27 12:00:26;;;;;;;3.50;3.23;;;12.10;99.90;;;;;;5017476;28;20502;-65
2023/04/27 12:02:54;;;;;;;3.73;3.40;;;12.10;99.90;;;;;;5012705;28;20632;-66
2023/04/27 12:05:23;;;;;;;3.50;3.20;;;12.00;99.90;;;;;;5016422;28;20476;-64
2023/04/27 12:07:52;;;;;;;3.67;3.37;;;12.00;99.90;;;;;;5018031;28;20510;-65
2023/04/27 12:10:20;;;;;;;3.57;3.27;;;12.00;99.90;;;;;;5018357;28;20505;-67
2023/04/27 12:12:48;;;;;;;3.90;3.40;;;12.10;99.90;;;;;;5017171;28;20483;-67
2023/04/27 12:15:18;;;;;;;5.00;2.90;;;12.20;99.90;;;;;;5020996;28;20482;-66
2023/04/27 12:17:45;;;;;;;4.10;3.80;;;12.20;99.90;;;;;;5017676;28;20483;-66
2023/04/27 12:20:14;;;;;;;3.83;3.53;;;12.20;99.90;;;;;;5020495;28;20603;-66
2023/04/27 12:22:42;;;;;;;3.80;3.50;;;12.20;99.90;;;;;;5020872;28;20488;-66
2023/04/27 12:25:10;;;;;;;3.50;3.20;;;12.10;99.90;;;;;;5019060;28;20472;-66
2023/04/27 12:27:37;;;;;;;5.73;3.60;;;11.90;99.90;;;;;;5018070;28;20468;-66
2023/04/27 12:30:08;;;;;;;3.53;3.23;;;11.90;99.90;;;;;;5019123;28;20498;-67
2023/04/27 12:32:37;;;;;;;7.67;3.07;;;11.80;99.90;;;;;;5019815;28;20575;-66
2023/04/27 12:35:06;;;;;;;3.50;3.30;;;11.80;99.90;;;;;;5018615;28;20475;-65
2023/04/27 12:37:34;;;;;;;4.93;3.20;;;11.80;99.90;;;;;;5017914;28;21000;-66
2023/04/27 12:40:06;;;;;;;6.80;3.00;;;11.80;99.90;;;;;;5018829;28;20507;-66
2023/04/27 12:42:34;;;;;;;3.53;3.33;;;11.70;99.90;;;;;;5014813;28;20499;-64
2023/04/27 12:45:03;;;;;;;4.10;3.70;;;11.70;99.90;;;;;;5017357;28;20475;-66
2023/04/27 12:47:33;;;;;;;6.27;3.30;;;11.70;99.90;;;;;;5020906;28;20552;-66
2023/04/27 12:50:22;;;;;;;3.50;3.20;;;11.70;99.90;;;;;;5016353;28;20574;-66
2023/04/27 12:52:50;;;;;;;4.77;3.80;;;11.60;99.90;;;;;;5020753;28;20570;-66
2023/04/27 12:55:19;;;;;;;6.23;4.10;;;11.70;99.90;;;;;;5022194;28;20471;-66
2023/04/27 12:57:59;;;;;;;3.87;3.57;;;11.70;99.90;;;;;;5023632;28;20577;-66
2023/04/27 13:00:28;;;;;;;3.50;3.20;;;11.60;99.90;;;;;;5016520;28;20530;-64
2023/04/27 13:02:57;;;;;;;3.70;3.40;;;11.60;99.90;;;;;;5012059;28;20479;-66
2023/04/27 13:05:27;;;;;;;4.03;3.63;;;11.50;99.90;;;;;;5013283;28;20482;-65
2023/04/27 13:07:58;;;;;;;4.97;3.73;;;11.50;99.90;;;;;;5015602;28;20471;-65